Davenport, Iowa
Current Conditions -  °F | °C
As of 5:52 PM on Saturday 25 Oct 2014 (Local Time) from KDVN Reporting Station
Clear Clear  
Wind Chill: 18°   Ceiling: Unl
Heat Index: 18°   Visibility: 10mi
Dew Point:   Wind: 10mph
Humidity: 30%   Direction: 300°WNW
Pressure: 30.02"   Gusts: NA
Location:  41.54°N, 90.58°W
Report Text: KDVN 252252Z AUTO 30009KT 10SM CLR 18/00 A3002 RMK AO2 SLP164 T01780000 TSNO
Loading
Personal Weather Stations






























Interactive Weather Map
Tropical Storm Tracking
New forecast layout! Learn more

10-Day Weather Forecast

Advertisements
Track Severe Weather on mobile